Cushing, OK

5:30 PM CDT on April 23, 2018 (GMT -0500)
Cushing Municipal

Weather History for KCUH - January, 2014

Change the Weather History Date:

Friday, January 3, 2014

  Actual Average Record
Temperature  
Mean Temperature 32 °F -  
Max Temperature 46 °F 46 °F 77 °F (2006)
Min Temperature 17 °F 25 °F 4 °F (1979)
Degree Days  
Heating Degree Days 34    
Moisture  
Dew Point 24 °F    
Average Humidity 72    
Maximum Humidity 93    
Minimum Humidity 50    
Precipitation  
Precipitation 0.00 in - - ()
Sea Level Pressure  
Sea Level Pressure 30.16 in    
Wind  
Wind Speed 7 mph (South)    
Max Wind Speed 23 mph    
Max Gust Speed 32 mph    
Visibility 10 miles    
Events      
Averages and records for this station are not official NWS values.
T = Trace of Precipitation, MM = Missing Value Source: NWS Daily Summary

Daily Weather History Graph

Daily Weather History Graph

Search for Another Location

Airport or City:

Astronomy

Jan. 03, 2014 Rise Set
Actual Time 7:37 AM CST 5:25 PM CST
Civil Twilight 7:09 AM CST 5:54 PM CST
Nautical Twilight 6:37 AM CST 6:25 PM CST
Astronomical Twilight 6:06 AM CST 6:57 PM CST
Moon 9:10 AM CST (1/3) 8:29 PM CST (1/3)
Length of Visible Light 10h 44m
Length of Day
9h 47m
Waxing Crescent, 8% of the Moon is Illuminated
Jan 3
Waxing Crescent
Jan 7
First Quarter
Jan 15
Full
Jan 23
Last Quarter
Jan 30
New

Hourly Weather History & Observations

Time (CST) Temp. Windchill Dew Point Humidity Pressure Visibility Wind Dir Wind Speed Gust Speed Precip Events Conditions
12:15 AM 23.0 °F - 17.6 °F 80% 30.43 in 10.0 mi Calm Calm - N/A   Clear
12:35 AM 21.2 °F - 17.6 °F 86% 30.42 in 10.0 mi Calm Calm - N/A   Clear
12:55 AM 19.4 °F - 17.6 °F 93% 30.42 in 10.0 mi Calm Calm - N/A   Clear
1:15 AM 19.4 °F - 17.6 °F 93% 30.42 in 10.0 mi Calm Calm - N/A   Clear
1:35 AM 21.2 °F - 17.6 °F 86% 30.42 in 10.0 mi Calm Calm - N/A   Clear
1:55 AM 21.2 °F 16.4 °F 17.6 °F 86% 30.42 in 10.0 mi SSE 3.5 mph - N/A   Clear
2:15 AM 21.2 °F 14.9 °F 17.6 °F 86% 30.42 in 10.0 mi SSE 4.6 mph - N/A   Clear
2:35 AM 21.2 °F - 17.6 °F 86% 30.41 in 10.0 mi Calm Calm - N/A   Clear
2:55 AM 21.2 °F - 17.6 °F 86% 30.41 in 10.0 mi Calm Calm - N/A   Clear
3:15 AM 19.4 °F - 15.8 °F 86% 30.40 in 10.0 mi Calm Calm - N/A   Clear
3:35 AM 17.6 °F - 15.8 °F 93% 30.40 in 10.0 mi Calm Calm - N/A   Clear
3:55 AM 21.2 °F 14.9 °F 17.6 °F 86% 30.39 in 10.0 mi SSE 4.6 mph - N/A   Clear
4:15 AM 21.2 °F 14.9 °F 17.6 °F 86% 30.38 in 10.0 mi SSE 4.6 mph - N/A   Clear
4:35 AM 21.2 °F 14.9 °F 17.6 °F 86% 30.37 in 10.0 mi SSE 4.6 mph - N/A   Clear
4:55 AM 21.2 °F 14.9 °F 17.6 °F 86% 30.38 in 10.0 mi South 4.6 mph - N/A   Clear
5:15 AM 21.2 °F 14.9 °F 17.6 °F 86% 30.37 in 10.0 mi SSE 4.6 mph - N/A   Clear
5:35 AM 21.2 °F 14.9 °F 17.6 °F 86% 30.36 in 10.0 mi SSE 4.6 mph - N/A   Clear
5:55 AM 21.2 °F 16.4 °F 17.6 °F 86% 30.36 in 10.0 mi SSE 3.5 mph - N/A   Clear
6:15 AM 19.4 °F 14.3 °F 17.6 °F 93% 30.35 in 10.0 mi South 3.5 mph - N/A   Clear
6:35 AM 19.4 °F 12.8 °F 17.6 °F 93% 30.34 in 10.0 mi South 4.6 mph - N/A   Clear
6:55 AM 19.4 °F 14.3 °F 17.6 °F 93% 30.33 in 10.0 mi SSE 3.5 mph - N/A   Clear
7:15 AM 19.4 °F 11.5 °F 17.6 °F 93% 30.33 in 10.0 mi South 5.8 mph - N/A   Clear
7:35 AM 21.2 °F 14.9 °F 17.6 °F 86% 30.32 in 10.0 mi SSE 4.6 mph - N/A   Clear
7:55 AM 21.2 °F 13.6 °F 17.6 °F 86% 30.32 in 10.0 mi SSE 5.8 mph - N/A   Clear
8:15 AM 21.2 °F 14.9 °F 19.4 °F 93% 30.31 in 10.0 mi SSE 4.6 mph - N/A   Clear
8:35 AM 23.0 °F 17.0 °F 19.4 °F 86% 30.31 in 10.0 mi South 4.6 mph - N/A   Clear
8:55 AM 26.6 °F 17.5 °F 21.2 °F 80% 30.30 in 10.0 mi South 9.2 mph - N/A   Clear
9:15 AM 28.4 °F 18.5 °F 23.0 °F 80% 30.29 in 10.0 mi South 11.5 mph - N/A   Clear
9:35 AM 30.2 °F 20.8 °F 23.0 °F 75% 30.28 in 10.0 mi South 11.5 mph - N/A   Clear
9:55 AM 32.0 °F 20.8 °F 26.6 °F 80% 30.28 in 10.0 mi South 17.3 mph 25.3 mph N/A   Clear
10:15 AM 33.8 °F 22.8 °F 26.6 °F 75% 30.27 in 10.0 mi South 18.4 mph 28.8 mph N/A   Clear
10:35 AM 33.8 °F 21.6 °F 26.6 °F 75% 30.26 in 10.0 mi South 23.0 mph 29.9 mph N/A   Clear
10:55 AM 35.6 °F 25.9 °F 26.6 °F 70% 30.25 in 10.0 mi South 16.1 mph 29.9 mph N/A   Clear
11:15 AM 37.4 °F 28.2 °F 28.4 °F 70% 30.23 in 10.0 mi South 16.1 mph 25.3 mph N/A   Clear
11:35 AM 39.2 °F 30.5 °F 28.4 °F 65% 30.20 in 10.0 mi South 16.1 mph 25.3 mph N/A   Clear
11:55 AM 41.0 °F 32.2 °F 28.4 °F 61% 30.19 in 10.0 mi South 18.4 mph 27.6 mph N/A   Clear
12:15 PM 41.0 °F 32.5 °F 28.4 °F 61% 30.16 in 10.0 mi South 17.3 mph 28.8 mph N/A   Clear
12:35 PM 42.8 °F 34.8 °F 28.4 °F 57% 30.14 in 10.0 mi South 17.3 mph 26.5 mph N/A   Clear
12:55 PM 42.8 °F 34.5 °F 28.4 °F 57% 30.12 in 10.0 mi South 18.4 mph 25.3 mph N/A   Clear
1:15 PM 42.8 °F 34.8 °F 28.4 °F 57% 30.10 in 10.0 mi South 17.3 mph 24.2 mph N/A   Clear
1:35 PM 44.6 °F 38.4 °F 28.4 °F 53% 30.09 in 10.0 mi South 12.7 mph 23.0 mph N/A   Clear
1:55 PM 44.6 °F 36.6 °F 28.4 °F 53% 30.07 in 10.0 mi South 19.6 mph 25.3 mph N/A   Clear
2:15 PM 44.6 °F 36.9 °F 28.4 °F 53% 30.05 in 10.0 mi South 18.4 mph 25.3 mph N/A   Clear
2:35 PM 44.6 °F 37.4 °F 28.4 °F 53% 30.03 in 10.0 mi South 16.1 mph 24.2 mph N/A   Clear
2:55 PM 46.4 °F 39.0 °F 28.4 °F 50% 30.02 in 10.0 mi South 19.6 mph 27.6 mph N/A   Clear
3:15 PM 46.4 °F 39.5 °F 28.4 °F 50% 30.01 in 10.0 mi South 17.3 mph 26.5 mph N/A   Clear
3:35 PM 44.6 °F 37.4 °F 28.4 °F 53% 30.00 in 10.0 mi South 16.1 mph 24.2 mph N/A   Clear
3:55 PM 46.4 °F 39.8 °F 28.4 °F 50% 29.99 in 10.0 mi South 16.1 mph 32.2 mph N/A   Clear
4:15 PM 44.6 °F 36.9 °F 28.4 °F 53% 29.98 in 10.0 mi South 18.4 mph 28.8 mph N/A   Clear
4:35 PM 42.8 °F 34.8 °F 28.4 °F 57% 29.97 in 10.0 mi South 17.3 mph 24.2 mph N/A   Clear
4:55 PM 42.8 °F 36.2 °F 28.4 °F 57% 29.96 in 10.0 mi South 12.7 mph 21.9 mph N/A   Clear
5:15 PM 41.0 °F 34.3 °F 28.4 °F 61% 29.95 in 10.0 mi South 11.5 mph 21.9 mph N/A   Clear
5:35 PM 41.0 °F 34.3 °F 26.6 °F 57% 29.95 in 10.0 mi SSE 11.5 mph 17.3 mph N/A   Clear
5:55 PM 41.0 °F 34.7 °F 26.6 °F 57% 29.95 in 10.0 mi SSE 10.4 mph 18.4 mph N/A   Clear
6:15 PM 41.0 °F 34.3 °F 26.6 °F 57% 29.95 in 10.0 mi South 11.5 mph 17.3 mph N/A   Clear
6:35 PM 41.0 °F 35.2 °F 26.6 °F 57% 29.94 in 10.0 mi SSE 9.2 mph 18.4 mph N/A   Clear
6:55 PM 39.2 °F 32.0 °F 26.6 °F 61% 29.94 in 10.0 mi South 11.5 mph - N/A   Clear
7:15 PM 39.2 °F 30.8 °F 26.6 °F 61% 29.93 in 10.0 mi South 15.0 mph 20.7 mph N/A   Clear
7:35 PM 37.4 °F 28.9 °F 26.6 °F 65% 29.93 in 10.0 mi South 13.8 mph 19.6 mph N/A   Clear
7:55 PM 37.4 °F 29.8 °F 26.6 °F 65% 29.92 in 10.0 mi South 11.5 mph 20.7 mph N/A   Clear
8:15 PM 37.4 °F 29.8 °F 28.4 °F 70% 29.92 in 10.0 mi South 11.5 mph 19.6 mph N/A   Clear
8:35 PM 39.2 °F 30.8 °F 28.4 °F 65% 29.91 in 10.0 mi South 15.0 mph 21.9 mph N/A   Clear
8:55 PM 39.2 °F 30.8 °F 28.4 °F 65% 29.90 in 10.0 mi South 15.0 mph 23.0 mph N/A   Clear
9:15 PM 39.2 °F 31.6 °F 28.4 °F 65% 29.91 in 10.0 mi South 12.7 mph 21.9 mph N/A   Clear
9:35 PM 39.2 °F 31.2 °F 28.4 °F 65% 29.91 in 10.0 mi South 13.8 mph 20.7 mph N/A   Clear
9:55 PM 39.2 °F 32.5 °F 28.4 °F 65% 29.90 in 10.0 mi South 10.4 mph 20.7 mph N/A   Clear
10:15 PM 37.4 °F 28.9 °F 28.4 °F 70% 29.90 in 10.0 mi South 13.8 mph 20.7 mph N/A   Clear
10:35 PM 37.4 °F 28.9 °F 28.4 °F 70% 29.89 in 10.0 mi South 13.8 mph 20.7 mph N/A   Clear
10:55 PM 37.4 °F 28.2 °F 28.4 °F 70% 29.88 in 10.0 mi South 16.1 mph 23.0 mph N/A   Clear
11:15 PM 37.4 °F 28.2 °F 28.4 °F 70% 29.87 in 10.0 mi South 16.1 mph 23.0 mph N/A   Clear
11:35 PM 39.2 °F 30.8 °F 28.4 °F 65% 29.86 in 10.0 mi South 15.0 mph 21.9 mph N/A   Clear
11:55 PM 39.2 °F 31.2 °F 28.4 °F 65% 29.85 in 10.0 mi South 13.8 mph 23.0 mph N/A   Clear